sensor_id;sensor_type;location;lat;lon;timestamp;pressure;altitude;pressure_sealevel;temperature;humidity
63097;BME280;49185;42.320;23.198;2023-09-30T00:01:46;95229.50;;;15.02;67.35
63097;BME280;49185;42.320;23.198;2023-09-30T00:04:11;95228.97;;;15.05;67.16
63097;BME280;49185;42.320;23.198;2023-09-30T00:06:37;95230.03;;;15.09;66.91
63097;BME280;49185;42.320;23.198;2023-09-30T00:09:02;95228.16;;;15.05;66.97
63097;BME280;49185;42.320;23.198;2023-09-30T00:11:28;95228.41;;;14.98;67.38
63097;BME280;49185;42.320;23.198;2023-09-30T00:13:53;95225.16;;;14.86;68.31
63097;BME280;49185;42.320;23.198;2023-09-30T00:16:18;95221.13;;;14.83;67.99
63097;BME280;49185;42.320;23.198;2023-09-30T00:18:44;95224.09;;;14.87;67.68
63097;BME280;49185;42.320;23.198;2023-09-30T00:21:10;95223.84;;;14.93;67.05
63097;BME280;49185;42.320;23.198;2023-09-30T00:23:35;95216.88;;;14.97;67.24
63097;BME280;49185;42.320;23.198;2023-09-30T00:26:01;95216.34;;;15.00;67.11
63097;BME280;49185;42.320;23.198;2023-09-30T00:28:26;95217.16;;;15.01;67.03
63097;BME280;49185;42.320;23.198;2023-09-30T00:30:52;95214.50;;;15.06;66.88
63097;BME280;49185;42.320;23.198;2023-09-30T00:33:17;95212.34;;;15.03;66.99
63097;BME280;49185;42.320;23.198;2023-09-30T00:35:42;95209.09;;;14.96;67.21
63097;BME280;49185;42.320;23.198;2023-09-30T00:38:08;95210.22;;;15.05;66.74
63097;BME280;49185;42.320;23.198;2023-09-30T00:40:33;95207.25;;;15.02;66.62
63097;BME280;49185;42.320;23.198;2023-09-30T00:42:59;95209.66;;;15.08;65.96
63097;BME280;49185;42.320;23.198;2023-09-30T00:45:25;95203.53;;;15.13;65.42
63097;BME280;49185;42.320;23.198;2023-09-30T00:47:50;95210.22;;;15.21;65.34
63097;BME280;49185;42.320;23.198;2023-09-30T00:50:16;95209.69;;;15.24;64.94
63097;BME280;49185;42.320;23.198;2023-09-30T00:52:42;95208.63;;;15.19;65.23
63097;BME280;49185;42.320;23.198;2023-09-30T00:55:08;95209.16;;;15.16;65.14
63097;BME280;49185;42.320;23.198;2023-09-30T00:57:34;95203.28;;;15.19;65.32
63097;BME280;49185;42.320;23.198;2023-09-30T01:00:00;95215.34;;;15.32;64.44
63097;BME280;49185;42.320;23.198;2023-09-30T01:02:26;95214.53;;;15.27;65.01
63097;BME280;49185;42.320;23.198;2023-09-30T01:04:52;95212.91;;;15.21;65.56
63097;BME280;49185;42.320;23.198;2023-09-30T01:07:18;95210.50;;;15.19;65.06
63097;BME280;49185;42.320;23.198;2023-09-30T01:09:44;95212.91;;;15.26;64.96
63097;BME280;49185;42.320;23.198;2023-09-30T01:12:09;95206.50;;;15.22;64.88
63097;BME280;49185;42.320;23.198;2023-09-30T01:14:35;95211.31;;;15.25;64.90
63097;BME280;49185;42.320;23.198;2023-09-30T01:17:01;95208.91;;;15.18;65.07
63097;BME280;49185;42.320;23.198;2023-09-30T01:19:27;95209.16;;;15.16;64.82
63097;BME280;49185;42.320;23.198;2023-09-30T01:21:56;95211.31;;;15.14;65.40
63097;BME280;49185;42.320;23.198;2023-09-30T01:24:22;95220.88;;;14.90;66.89
63097;BME280;49185;42.320;23.198;2023-09-30T01:26:47;95227.28;;;14.26;70.08
63097;BME280;49185;42.320;23.198;2023-09-30T01:29:13;95227.34;;;13.61;73.14
63097;BME280;49185;42.320;23.198;2023-09-30T01:31:38;95233.59;;;12.90;76.34
63097;BME280;49185;42.320;23.198;2023-09-30T01:34:04;95236.09;;;12.52;78.42
63097;BME280;49185;42.320;23.198;2023-09-30T01:36:30;95231.91;;;12.18;80.57
63097;BME280;49185;42.320;23.198;2023-09-30T01:38:55;95237.09;;;12.07;81.66
63097;BME280;49185;42.320;23.198;2023-09-30T01:41:20;95246.94;;;11.90;82.62
63097;BME280;49185;42.320;23.198;2023-09-30T01:43:46;95249.06;;;11.71;83.80
63097;BME280;49185;42.320;23.198;2023-09-30T01:46:11;95239.91;;;11.67;84.47
63097;BME280;49185;42.320;23.198;2023-09-30T01:48:37;95241.03;;;11.54;85.26
63097;BME280;49185;42.320;23.198;2023-09-30T01:51:02;95245.97;;;11.45;86.53
63097;BME280;49185;42.320;23.198;2023-09-30T01:53:27;95241.94;;;11.43;86.59
63097;BME280;49185;42.320;23.198;2023-09-30T01:55:53;95242.88;;;11.36;87.60
63097;BME280;49185;42.320;23.198;2023-09-30T01:58:18;95236.19;;;11.34;87.82
63097;BME280;49185;42.320;23.198;2023-09-30T02:00:44;95230.91;;;11.22;88.73
63097;BME280;49185;42.320;23.198;2023-09-30T02:03:09;95237.69;;;11.13;90.21
63097;BME280;49185;42.320;23.198;2023-09-30T02:05:35;95229.22;;;11.16;89.26
63097;BME280;49185;42.320;23.198;2023-09-30T02:08:02;95236.81;;;11.24;88.99
63097;BME280;49185;42.320;23.198;2023-09-30T02:10:28;95239.31;;;11.14;89.25
63097;BME280;49185;42.320;23.198;2023-09-30T02:12:53;95232.59;;;11.11;89.87
63097;BME280;49185;42.320;23.198;2023-09-30T02:15:19;95226.22;;;11.12;90.20
63097;BME280;49185;42.320;23.198;2023-09-30T02:17:44;95229.31;;;11.21;89.31
63097;BME280;49185;42.320;23.198;2023-09-30T02:20:09;95236.16;;;11.17;90.10
63097;BME280;49185;42.320;23.198;2023-09-30T02:22:35;95234.72;;;11.26;89.90
63097;BME280;49185;42.320;23.198;2023-09-30T02:25:00;95231.47;;;11.24;89.83
63097;BME280;49185;42.320;23.198;2023-09-30T02:27:26;95231.09;;;11.32;89.78
63097;BME280;49185;42.320;23.198;2023-09-30T02:29:51;95231.97;;;11.21;90.72
63097;BME280;49185;42.320;23.198;2023-09-30T02:32:16;95230.16;;;11.10;91.61
63097;BME280;49185;42.320;23.198;2023-09-30T02:34:42;95231.38;;;11.02;91.98
63097;BME280;49185;42.320;23.198;2023-09-30T02:37:07;95229.06;;;10.94;91.48
63097;BME280;49185;42.320;23.198;2023-09-30T02:39:33;95234.63;;;10.92;92.45
63097;BME280;49185;42.320;23.198;2023-09-30T02:41:58;95234.06;;;10.90;92.09
63097;BME280;49185;42.320;23.198;2023-09-30T02:44:23;95231.31;;;10.85;93.27
63097;BME280;49185;42.320;23.198;2023-09-30T02:46:49;95232.38;;;10.84;94.40
63097;BME280;49185;42.320;23.198;2023-09-30T02:49:14;95236.06;;;10.83;94.12
63097;BME280;49185;42.320;23.198;2023-09-30T02:51:40;95236.06;;;10.83;94.47
63097;BME280;49185;42.320;23.198;2023-09-30T02:54:05;95239.13;;;10.75;94.76
63097;BME280;49185;42.320;23.198;2023-09-30T02:56:30;95232.75;;;10.76;94.65
63097;BME280;49185;42.320;23.198;2023-09-30T02:58:56;95228.59;;;10.68;94.75
63097;BME280;49185;42.320;23.198;2023-09-30T03:01:22;95233.38;;;10.66;94.41
63097;BME280;49185;42.320;23.198;2023-09-30T03:03:48;95233.03;;;10.62;94.71
63097;BME280;49185;42.320;23.198;2023-09-30T03:06:13;95238.47;;;10.56;95.45
63097;BME280;49185;42.320;23.198;2023-09-30T03:08:38;95236.72;;;10.61;95.00
63097;BME280;49185;42.320;23.198;2023-09-30T03:11:04;95237.19;;;10.58;95.33
63097;BME280;49185;42.320;23.198;2023-09-30T03:13:29;95231.41;;;10.50;95.80
63097;BME280;49185;42.320;23.198;2023-09-30T03:15:55;95231.56;;;10.43;96.78
63097;BME280;49185;42.320;23.198;2023-09-30T03:18:20;95235.38;;;10.47;97.51
63097;BME280;49185;42.320;23.198;2023-09-30T03:20:46;95225.75;;;10.46;97.50
63097;BME280;49185;42.320;23.198;2023-09-30T03:23:11;95236.06;;;10.42;98.32
63097;BME280;49185;42.320;23.198;2023-09-30T03:25:36;95239.56;;;10.43;98.35
63097;BME280;49185;42.320;23.198;2023-09-30T03:28:02;95234.34;;;10.36;97.67
63097;BME280;49185;42.320;23.198;2023-09-30T03:30:27;95239.09;;;10.34;97.56
63097;BME280;49185;42.320;23.198;2023-09-30T03:32:53;95240.13;;;10.33;96.83
63097;BME280;49185;42.320;23.198;2023-09-30T03:35:18;95239.22;;;10.39;96.94
63097;BME280;49185;42.320;23.198;2023-09-30T03:37:44;95234.94;;;10.38;96.23
63097;BME280;49185;42.320;23.198;2023-09-30T03:40:11;95239.56;;;10.43;96.35
63097;BME280;49185;42.320;23.198;2023-09-30T03:42:38;95242.44;;;10.41;97.11
63097;BME280;49185;42.320;23.198;2023-09-30T03:45:04;95239.06;;;10.46;96.33
63097;BME280;49185;42.320;23.198;2023-09-30T03:47:31;95234.69;;;10.52;95.83
63097;BME280;49185;42.320;23.198;2023-09-30T03:49:56;95234.19;;;10.55;96.06
63097;BME280;49185;42.320;23.198;2023-09-30T03:52:22;95229.44;;;10.57;95.03
63097;BME280;49185;42.320;23.198;2023-09-30T03:54:47;95234.06;;;10.61;94.56
63097;BME280;49185;42.320;23.198;2023-09-30T03:57:12;95228.06;;;10.54;96.25
63097;BME280;49185;42.320;23.198;2023-09-30T03:59:38;95235.25;;;10.54;97.13
63097;BME280;49185;42.320;23.198;2023-09-30T04:02:03;95241.25;;;10.49;96.70
63097;BME280;49185;42.320;23.198;2023-09-30T04:04:28;95229.25;;;10.47;96.70
63097;BME280;49185;42.320;23.198;2023-09-30T04:06:54;95227.97;;;10.49;97.52
63097;BME280;49185;42.320;23.198;2023-09-30T04:09:19;95224.16;;;10.45;97.60
63097;BME280;49185;42.320;23.198;2023-09-30T04:11:45;95232.03;;;10.40;97.56
63097;BME280;49185;42.320;23.198;2023-09-30T04:14:10;95229.84;;;10.37;97.85
63097;BME280;49185;42.320;23.198;2023-09-30T04:16:36;95234.44;;;10.30;98.19
63097;BME280;49185;42.320;23.198;2023-09-30T04:19:01;95233.06;;;10.27;98.39
63097;BME280;49185;42.320;23.198;2023-09-30T04:21:27;95231.34;;;10.21;99.14
63097;BME280;49185;42.320;23.198;2023-09-30T04:23:52;95231.00;;;10.17;99.09
63097;BME280;49185;42.320;23.198;2023-09-30T04:26:18;95227.88;;;10.20;99.24
63097;BME280;49185;42.320;23.198;2023-09-30T04:28:43;95238.50;;;10.20;99.25
63097;BME280;49185;42.320;23.198;2023-09-30T04:31:08;95237.13;;;10.18;99.49
63097;BME280;49185;42.320;23.198;2023-09-30T04:33:34;95234.00;;;10.21;99.66
63097;BME280;49185;42.320;23.198;2023-09-30T04:35:59;95231.34;;;10.21;99.93
63097;BME280;49185;42.320;23.198;2023-09-30T04:38:25;95236.09;;;10.19;100.00
63097;BME280;49185;42.320;23.198;2023-09-30T04:40:50;95237.34;;;10.16;100.00
63097;BME280;49185;42.320;23.198;2023-09-30T04:43:15;95234.00;;;10.21;99.91
63097;BME280;49185;42.320;23.198;2023-09-30T04:45:41;95235.41;;;10.23;100.00
63097;BME280;49185;42.320;23.198;2023-09-30T04:48:06;95248.91;;;10.22;100.00
63097;BME280;49185;42.320;23.198;2023-09-30T04:50:31;95246.72;;;10.31;100.00
63097;BME280;49185;42.320;23.198;2023-09-30T04:52:57;95248.91;;;10.45;99.36
63097;BME280;49185;42.320;23.198;2023-09-30T04:55:23;95247.69;;;10.65;98.07
63097;BME280;49185;42.320;23.198;2023-09-30T04:57:49;95246.84;;;10.76;97.98
63097;BME280;49185;42.320;23.198;2023-09-30T05:00:15;95247.00;;;10.98;96.80
63097;BME280;49185;42.320;23.198;2023-09-30T05:02:41;95249.47;;;11.17;94.75
63097;BME280;49185;42.320;23.198;2023-09-30T05:05:07;95249.28;;;11.35;94.43
63097;BME280;49185;42.320;23.198;2023-09-30T05:07:32;95251.13;;;11.52;92.60
63097;BME280;49185;42.320;23.198;2023-09-30T05:09:58;95260.19;;;11.68;90.96
63097;BME280;49185;42.320;23.198;2023-09-30T05:12:23;95258.97;;;11.75;91.21
63097;BME280;49185;42.320;23.198;2023-09-30T05:14:49;95264.00;;;11.89;89.61
63097;BME280;49185;42.320;23.198;2023-09-30T05:17:14;95264.81;;;12.06;88.43
63097;BME280;49185;42.320;23.198;2023-09-30T05:19:40;95267.63;;;12.17;87.35
63097;BME280;49185;42.320;23.198;2023-09-30T05:22:05;95269.78;;;12.37;86.46
63097;BME280;49185;42.320;23.198;2023-09-30T05:24:31;95272.84;;;12.45;84.92
63097;BME280;49185;42.320;23.198;2023-09-30T05:26:56;95270.63;;;12.59;85.43
63097;BME280;49185;42.320;23.198;2023-09-30T05:29:22;95270.09;;;12.62;84.82
63097;BME280;49185;42.320;23.198;2023-09-30T05:31:48;95272.16;;;12.77;85.06
63097;BME280;49185;42.320;23.198;2023-09-30T05:34:14;95267.94;;;13.03;84.03
63097;BME280;49185;42.320;23.198;2023-09-30T05:36:39;95271.09;;;13.00;83.80
63097;BME280;49185;42.320;23.198;2023-09-30T05:39:05;95268.38;;;13.22;82.64
63097;BME280;49185;42.320;23.198;2023-09-30T05:41:31;95279.91;;;13.50;80.84
63097;BME280;49185;42.320;23.198;2023-09-30T05:43:57;95268.97;;;13.84;80.45
63097;BME280;49185;42.320;23.198;2023-09-30T05:46:22;95281.06;;;14.24;78.58
63097;BME280;49185;42.320;23.198;2023-09-30T05:48:48;95271.53;;;14.43;77.78
63097;BME280;49185;42.320;23.198;2023-09-30T05:51:13;95276.56;;;14.77;77.05
63097;BME280;49185;42.320;23.198;2023-09-30T05:53:38;95287.09;;;14.99;75.54
63097;BME280;49185;42.320;23.198;2023-09-30T05:56:04;95277.75;;;15.07;75.05
63097;BME280;49185;42.320;23.198;2023-09-30T05:58:29;95275.16;;;15.43;73.92
63097;BME280;49185;42.320;23.198;2023-09-30T06:00:55;95278.16;;;15.88;72.58
63097;BME280;49185;42.320;23.198;2023-09-30T06:03:20;95281.91;;;16.23;70.49
63097;BME280;49185;42.320;23.198;2023-09-30T06:05:46;95281.56;;;16.65;69.54
63097;BME280;49185;42.320;23.198;2023-09-30T06:08:12;95290.66;;;16.80;67.80
63097;BME280;49185;42.320;23.198;2023-09-30T06:10:40;95287.72;;;16.71;67.53
63097;BME280;49185;42.320;23.198;2023-09-30T06:13:05;95290.50;;;17.26;66.52
63097;BME280;49185;42.320;23.198;2023-09-30T06:15:31;95286.38;;;17.44;65.58
63097;BME280;49185;42.320;23.198;2023-09-30T06:17:57;95284.47;;;17.50;64.98
63097;BME280;49185;42.320;23.198;2023-09-30T06:20:22;95289.53;;;17.56;65.14
63097;BME280;49185;42.320;23.198;2023-09-30T06:22:48;95289.16;;;17.73;63.59
63097;BME280;49185;42.320;23.198;2023-09-30T06:25:15;95296.97;;;18.09;62.64
63097;BME280;49185;42.320;23.198;2023-09-30T06:27:40;95302.78;;;18.27;61.34
63097;BME280;49185;42.320;23.198;2023-09-30T06:30:06;95297.53;;;18.40;61.06
63097;BME280;49185;42.320;23.198;2023-09-30T06:32:32;95303.88;;;18.26;61.63
63097;BME280;49185;42.320;23.198;2023-09-30T06:34:57;95300.56;;;18.87;59.04
63097;BME280;49185;42.320;23.198;2023-09-30T06:37:23;95298.34;;;19.19;57.74
63097;BME280;49185;42.320;23.198;2023-09-30T06:39:48;95299.56;;;19.69;56.79
63097;BME280;49185;42.320;23.198;2023-09-30T06:42:14;95291.56;;;19.83;55.06
63097;BME280;49185;42.320;23.198;2023-09-30T06:44:39;95294.41;;;19.30;55.55
63097;BME280;49185;42.320;23.198;2023-09-30T06:47:05;95291.63;;;19.78;55.28
63097;BME280;49185;42.320;23.198;2023-09-30T06:49:33;95289.34;;;19.85;55.31
63097;BME280;49185;42.320;23.198;2023-09-30T06:51:59;95292.25;;;20.08;53.19
63097;BME280;49185;42.320;23.198;2023-09-30T06:54:24;95295.25;;;20.53;54.30
63097;BME280;49185;42.320;23.198;2023-09-30T06:56:50;95292.75;;;20.57;52.90
63097;BME280;49185;42.320;23.198;2023-09-30T06:59:15;95297.84;;;20.91;53.33
63097;BME280;49185;42.320;23.198;2023-09-30T07:01:41;95296.75;;;21.06;51.68
63097;BME280;49185;42.320;23.198;2023-09-30T07:04:06;95298.25;;;20.84;52.78
63097;BME280;49185;42.320;23.198;2023-09-30T07:06:32;95299.44;;;21.06;52.49
63097;BME280;49185;42.320;23.198;2023-09-30T07:08:57;95299.09;;;21.63;49.42
63097;BME280;49185;42.320;23.198;2023-09-30T07:11:29;95292.50;;;21.28;50.01
63097;BME280;49185;42.320;23.198;2023-09-30T07:13:56;95300.09;;;21.67;49.85
63097;BME280;49185;42.320;23.198;2023-09-30T07:16:21;95291.53;;;21.23;49.93
63097;BME280;49185;42.320;23.198;2023-09-30T07:18:46;95302.63;;;21.36;50.93
63097;BME280;49185;42.320;23.198;2023-09-30T07:21:13;95293.91;;;21.53;50.90
63097;BME280;49185;42.320;23.198;2023-09-30T07:23:38;95305.44;;;21.31;51.47
63097;BME280;49185;42.320;23.198;2023-09-30T07:26:04;95300.53;;;21.05;51.15
63097;BME280;49185;42.320;23.198;2023-09-30T07:28:29;95302.84;;;21.26;50.34
63097;BME280;49185;42.320;23.198;2023-09-30T07:30:55;95308.94;;;21.31;50.53
63097;BME280;49185;42.320;23.198;2023-09-30T07:33:20;95303.03;;;22.16;47.89
63097;BME280;49185;42.320;23.198;2023-09-30T07:35:46;95295.59;;;22.44;47.53
63097;BME280;49185;42.320;23.198;2023-09-30T07:38:12;95299.00;;;22.27;46.70
63097;BME280;49185;42.320;23.198;2023-09-30T07:40:37;95291.22;;;21.89;48.61
63097;BME280;49185;42.320;23.198;2023-09-30T07:43:03;95292.94;;;22.53;46.84
63097;BME280;49185;42.320;23.198;2023-09-30T07:45:28;95295.88;;;22.97;47.23
63097;BME280;49185;42.320;23.198;2023-09-30T07:47:53;95295.03;;;22.96;45.93
63097;BME280;49185;42.320;23.198;2023-09-30T07:50:19;95292.44;;;22.82;44.99
63097;BME280;49185;42.320;23.198;2023-09-30T07:52:44;95295.00;;;22.87;44.48
63097;BME280;49185;42.320;23.198;2023-09-30T07:55:10;95299.84;;;23.30;44.99
63097;BME280;49185;42.320;23.198;2023-09-30T07:57:36;95297.06;;;24.05;41.73
63097;BME280;49185;42.320;23.198;2023-09-30T08:00:02;95293.19;;;24.24;37.56
63097;BME280;49185;42.320;23.198;2023-09-30T08:02:28;95285.25;;;24.01;36.87
63097;BME280;49185;42.320;23.198;2023-09-30T08:04:54;95286.50;;;24.04;36.15
63097;BME280;49185;42.320;23.198;2023-09-30T08:07:19;95283.63;;;24.09;36.96
63097;BME280;49185;42.320;23.198;2023-09-30T08:09:44;95290.16;;;23.73;37.72
63097;BME280;49185;42.320;23.198;2023-09-30T08:12:10;95290.13;;;24.43;36.97
63097;BME280;49185;42.320;23.198;2023-09-30T08:14:37;95292.03;;;24.69;36.12
63097;BME280;49185;42.320;23.198;2023-09-30T08:17:02;95287.84;;;24.71;35.42
63097;BME280;49185;42.320;23.198;2023-09-30T08:19:31;95287.22;;;24.74;34.75
63097;BME280;49185;42.320;23.198;2023-09-30T08:21:57;95290.47;;;24.97;35.86
63097;BME280;49185;42.320;23.198;2023-09-30T08:24:22;95288.91;;;24.88;34.32
63097;BME280;49185;42.320;23.198;2023-09-30T08:26:47;95297.19;;;25.00;33.61
63097;BME280;49185;42.320;23.198;2023-09-30T08:29:13;95283.13;;;25.36;34.06
63097;BME280;49185;42.320;23.198;2023-09-30T08:31:38;95294.56;;;25.51;34.22
63097;BME280;49185;42.320;23.198;2023-09-30T08:34:04;95286.44;;;25.42;33.16
63097;BME280;49185;42.320;23.198;2023-09-30T08:36:30;95293.25;;;25.27;33.47
63097;BME280;49185;42.320;23.198;2023-09-30T08:38:55;95284.09;;;25.32;32.49
63097;BME280;49185;42.320;23.198;2023-09-30T08:41:31;95286.94;;;25.06;33.29
63097;BME280;49185;42.320;23.198;2023-09-30T08:43:59;95285.88;;;25.57;32.63
63097;BME280;49185;42.320;23.198;2023-09-30T08:46:25;95281.22;;;25.58;32.52
63097;BME280;49185;42.320;23.198;2023-09-30T08:48:51;95280.44;;;25.19;33.26
63097;BME280;49185;42.320;23.198;2023-09-30T08:51:18;95287.28;;;25.85;32.66
63097;BME280;49185;42.320;23.198;2023-09-30T08:53:44;95284.63;;;25.97;29.64
63097;BME280;49185;42.320;23.198;2023-09-30T08:56:10;95281.06;;;26.05;30.90
63097;BME280;49185;42.320;23.198;2023-09-30T08:58:36;95280.84;;;26.10;32.07
63097;BME280;49185;42.320;23.198;2023-09-30T09:01:02;95271.91;;;26.56;31.18
63097;BME280;49185;42.320;23.198;2023-09-30T09:03:28;95269.34;;;26.38;30.62
63097;BME280;49185;42.320;23.198;2023-09-30T09:05:55;95270.44;;;26.25;30.93
63097;BME280;49185;42.320;23.198;2023-09-30T09:08:26;95267.41;;;26.05;30.31
63097;BME280;49185;42.320;23.198;2023-09-30T09:11:00;95269.13;;;25.68;30.54
63097;BME280;49185;42.320;23.198;2023-09-30T09:13:45;95266.53;;;25.71;31.19
63097;BME280;49185;42.320;23.198;2023-09-30T09:16:11;95268.00;;;25.69;30.99
63097;BME280;49185;42.320;23.198;2023-09-30T09:18:37;95259.69;;;26.07;30.02
63097;BME280;49185;42.320;23.198;2023-09-30T09:23:47;95267.41;;;26.05;28.80
63097;BME280;49185;42.320;23.198;2023-09-30T09:26:24;95264.09;;;26.00;28.55
63097;BME280;49185;42.320;23.198;2023-09-30T09:28:49;95252.81;;;26.22;28.53
63097;BME280;49185;42.320;23.198;2023-09-30T09:31:28;95252.22;;;26.17;28.00
63097;BME280;49185;42.320;23.198;2023-09-30T09:33:54;95255.66;;;26.13;29.15
63097;BME280;49185;42.320;23.198;2023-09-30T09:36:38;95246.53;;;26.55;28.60
63097;BME280;49185;42.320;23.198;2023-09-30T09:39:04;95241.41;;;26.53;29.51
63097;BME280;49185;42.320;23.198;2023-09-30T09:41:29;95239.66;;;26.24;27.95
63097;BME280;49185;42.320;23.198;2023-09-30T09:43:58;95242.75;;;26.68;27.91
63097;BME280;49185;42.320;23.198;2023-09-30T09:46:24;95233.53;;;26.06;27.33
63097;BME280;49185;42.320;23.198;2023-09-30T09:48:49;95241.69;;;25.73;29.47
63097;BME280;49185;42.320;23.198;2023-09-30T09:51:15;95240.47;;;25.83;27.77
63097;BME280;49185;42.320;23.198;2023-09-30T09:53:41;95225.06;;;25.66;28.27
63097;BME280;49185;42.320;23.198;2023-09-30T09:56:10;95223.06;;;25.96;26.91
63097;BME280;49185;42.320;23.198;2023-09-30T09:58:36;95227.50;;;26.34;27.19
63097;BME280;49185;42.320;23.198;2023-09-30T10:01:02;95235.94;;;25.87;27.05
63097;BME280;49185;42.320;23.198;2023-09-30T10:03:28;95226.09;;;26.16;27.46
63097;BME280;49185;42.320;23.198;2023-09-30T10:05:53;95224.31;;;26.32;27.16
63097;BME280;49185;42.320;23.198;2023-09-30T10:08:21;95221.31;;;26.58;27.82
63097;BME280;49185;42.320;23.198;2023-09-30T10:10:54;95216.22;;;26.69;26.21
63097;BME280;49185;42.320;23.198;2023-09-30T10:21:38;95213.53;;;26.36;26.23
63097;BME280;49185;42.320;23.198;2023-09-30T10:37:44;95197.13;;;27.06;24.24
63097;BME280;49185;42.320;23.198;2023-09-30T10:40:10;95191.31;;;27.20;23.60
63097;BME280;49185;42.320;23.198;2023-09-30T10:42:51;95186.75;;;27.24;23.59
63097;BME280;49185;42.320;23.198;2023-09-30T10:53:19;95188.81;;;26.65;25.09
63097;BME280;49185;42.320;23.198;2023-09-30T10:55:45;95185.28;;;26.77;25.45
63097;BME280;49185;42.320;23.198;2023-09-30T10:58:12;95188.13;;;26.93;25.12
63097;BME280;49185;42.320;23.198;2023-09-30T11:00:38;95171.84;;;27.09;25.26
63097;BME280;49185;42.320;23.198;2023-09-30T11:03:04;95177.09;;;26.89;25.50
63097;BME280;49185;42.320;23.198;2023-09-30T11:05:30;95178.25;;;26.76;25.36
63097;BME280;49185;42.320;23.198;2023-09-30T11:07:57;95195.19;;;26.24;25.63
63097;BME280;49185;42.320;23.198;2023-09-30T11:10:26;95180.03;;;26.97;25.77
63097;BME280;49185;42.320;23.198;2023-09-30T11:12:57;95171.50;;;27.11;25.75
63097;BME280;49185;42.320;23.198;2023-09-30T11:15:24;95167.06;;;27.18;25.19
63097;BME280;49185;42.320;23.198;2023-09-30T11:17:52;95166.63;;;27.57;25.43
63097;BME280;49185;42.320;23.198;2023-09-30T11:20:17;95164.44;;;27.34;24.19
63097;BME280;49185;42.320;23.198;2023-09-30T11:22:44;95178.47;;;27.08;24.83
63097;BME280;49185;42.320;23.198;2023-09-30T11:25:17;95171.03;;;26.59;25.86
63097;BME280;49185;42.320;23.198;2023-09-30T11:27:43;95174.00;;;27.03;25.89
63097;BME280;49185;42.320;23.198;2023-09-30T11:30:10;95167.22;;;26.85;26.75
63097;BME280;49185;42.320;23.198;2023-09-30T11:32:35;95167.44;;;26.09;25.61
63097;BME280;49185;42.320;23.198;2023-09-30T11:35:01;95158.78;;;25.74;26.34
63097;BME280;49185;42.320;23.198;2023-09-30T11:37:33;95161.34;;;25.91;27.59
63097;BME280;49185;42.320;23.198;2023-09-30T11:40:12;95143.94;;;25.84;27.80
63097;BME280;49185;42.320;23.198;2023-09-30T11:42:37;95147.03;;;25.40;28.23
63097;BME280;49185;42.320;23.198;2023-09-30T11:45:21;95153.38;;;25.02;28.56
63097;BME280;49185;42.320;23.198;2023-09-30T11:47:46;95143.41;;;25.36;29.25
63097;BME280;49185;42.320;23.198;2023-09-30T11:50:12;95152.22;;;25.33;28.14
63097;BME280;49185;42.320;23.198;2023-09-30T11:52:37;95154.94;;;24.82;28.25
63097;BME280;49185;42.320;23.198;2023-09-30T11:55:05;95146.31;;;24.80;28.78
63097;BME280;49185;42.320;23.198;2023-09-30T11:57:30;95145.56;;;25.00;28.88
63097;BME280;49185;42.320;23.198;2023-09-30T11:59:56;95132.00;;;25.13;28.45
63097;BME280;49185;42.320;23.198;2023-09-30T12:02:21;95124.47;;;25.39;28.26
63097;BME280;49185;42.320;23.198;2023-09-30T12:04:47;95130.56;;;25.57;29.05
63097;BME280;49185;42.320;23.198;2023-09-30T12:07:13;95119.59;;;25.45;29.44
63097;BME280;49185;42.320;23.198;2023-09-30T12:09:38;95128.94;;;24.93;28.46
63097;BME280;49185;42.320;23.198;2023-09-30T12:12:04;95122.25;;;24.52;28.46
63097;BME280;49185;42.320;23.198;2023-09-30T12:14:30;95126.41;;;24.58;28.77
63097;BME280;49185;42.320;23.198;2023-09-30T12:16:55;95125.31;;;24.51;29.14
63097;BME280;49185;42.320;23.198;2023-09-30T12:19:21;95112.44;;;24.69;30.14
63097;BME280;49185;42.320;23.198;2023-09-30T12:21:46;95116.44;;;24.92;29.65
63097;BME280;49185;42.320;23.198;2023-09-30T12:24:13;95107.50;;;24.92;28.18
63097;BME280;49185;42.320;23.198;2023-09-30T12:26:38;95103.69;;;24.84;27.91
63097;BME280;49185;42.320;23.198;2023-09-30T12:29:04;95097.00;;;24.81;27.40
63097;BME280;49185;42.320;23.198;2023-09-30T12:31:29;95106.09;;;24.56;28.29
63097;BME280;49185;42.320;23.198;2023-09-30T12:33:55;95108.19;;;24.50;28.10
63097;BME280;49185;42.320;23.198;2023-09-30T12:36:23;95110.56;;;24.60;28.18
63097;BME280;49185;42.320;23.198;2023-09-30T12:38:49;95098.84;;;24.30;28.69
63097;BME280;49185;42.320;23.198;2023-09-30T12:41:14;95092.28;;;24.31;29.55
63097;BME280;49185;42.320;23.198;2023-09-30T12:43:39;95097.59;;;24.28;29.08
63097;BME280;49185;42.320;23.198;2023-09-30T12:46:05;95100.38;;;24.10;28.80
63097;BME280;49185;42.320;23.198;2023-09-30T12:48:30;95091.53;;;24.13;28.76
63097;BME280;49185;42.320;23.198;2023-09-30T12:50:56;95080.50;;;24.48;29.25
63097;BME280;49185;42.320;23.198;2023-09-30T12:53:21;95095.56;;;24.75;28.85
63097;BME280;49185;42.320;23.198;2023-09-30T12:55:47;95086.81;;;24.70;28.42
63097;BME280;49185;42.320;23.198;2023-09-30T12:58:12;95084.38;;;24.47;28.53
63097;BME280;49185;42.320;23.198;2023-09-30T13:00:38;95088.28;;;24.29;29.16
63097;BME280;49185;42.320;23.198;2023-09-30T13:03:04;95088.09;;;23.95;28.70
63097;BME280;49185;42.320;23.198;2023-09-30T13:05:29;95078.38;;;23.85;29.20
63097;BME280;49185;42.320;23.198;2023-09-30T13:07:56;95077.41;;;23.90;29.69
63097;BME280;49185;42.320;23.198;2023-09-30T13:10:22;95078.72;;;23.84;29.59
63097;BME280;49185;42.320;23.198;2023-09-30T13:12:48;95085.69;;;23.94;30.11
63097;BME280;49185;42.320;23.198;2023-09-30T13:15:13;95070.56;;;23.84;29.59
63097;BME280;49185;42.320;23.198;2023-09-30T13:17:39;95064.66;;;23.82;29.65